Main page
METAR-TAF:

METAR-TAF

Airports :

Gwadar International Airport

Gwadar, Pakistan

latitude: 25-13-59N, longitude: 062-19-46E, elevation: 29 m

METAR: missing

Time: 08:32 (03:32 UTC)

Forecast

The report was made 6 hours and 2 minutes ago, at 21:30 UTC
Forecast valid from 27 at 00 UTC to 27 at 24 UTC
Wind 12 kt from the Southwest with gusts up to 22 kt
Visibility: 4000 m
Scattered clouds at a height of 2000 ft
widespread dust
Temporary
from 27 at 00 UTC to 27 at 04 UTC
Wind 10 kt from the Southwest
Visibility: 4000 m
Scattered clouds at a height of 2000 ft
haze
From 27 at 1800 UTC
Wind 8 kt from the Southwest with gusts up to 18 kt
Visibility: 4000 m
Broken clouds at a height of 2000 ft
haze

TAF: OPGD 262130Z 2700/2724 23012G22KT 4000 DU SCT020 TEMPO 2700/2704 23010KT 4000 HZ SCT020 FM271800 23008G18KT 4000 HZ BKN020

Weather observations and forecasts of more than 4000 airports (METAR and TAF reports).

The available stations are represented by yellow and red dots on the map.

Hover mouse over dot to see the name of the station.

Then click to see weather observations and forecasts.

To change the map : click on the green buttons with a black cross to zoom in, on the green button with a dash to zoom out, or on the green arrows for adjacent maps.


METAR-TAF: